createdAt,value
2023-04-15T00:02:18.911Z,12.34
2023-04-15T00:04:47.019Z,12.61
2023-04-15T00:07:14.980Z,12.60
2023-04-15T00:09:43.012Z,12.59
2023-04-15T00:12:11.022Z,12.65
2023-04-15T00:14:38.034Z,12.62
2023-04-15T00:17:04.938Z,12.60
2023-04-15T00:19:32.689Z,12.52
2023-04-15T00:22:00.321Z,12.43
2023-04-15T00:24:28.056Z,12.34
2023-04-15T00:26:54.991Z,12.24
2023-04-15T00:29:22.030Z,12.28
2023-04-15T00:31:48.935Z,12.07
2023-04-15T00:34:15.931Z,12.23
2023-04-15T00:36:43.901Z,12.27
2023-04-15T00:39:11.133Z,12.23
2023-04-15T00:41:39.854Z,12.28
2023-04-15T00:44:07.444Z,12.12
2023-04-15T00:46:36.957Z,12.07
2023-04-15T00:49:07.722Z,12.02
2023-04-15T00:51:37.135Z,12.00
2023-04-15T00:54:05.253Z,11.94
2023-04-15T00:56:38.651Z,12.01
2023-04-15T00:59:07.166Z,12.04
2023-04-15T01:01:36.582Z,12.11
2023-04-15T01:04:03.651Z,12.10
2023-04-15T01:06:32.379Z,12.17
2023-04-15T01:09:00.928Z,12.08
2023-04-15T01:11:28.429Z,12.19
2023-04-15T01:13:57.613Z,12.25
2023-04-15T01:16:24.896Z,12.29
2023-04-15T01:18:52.264Z,12.26
2023-04-15T01:21:19.972Z,12.31
2023-04-15T01:23:48.586Z,12.36
2023-04-15T01:26:16.899Z,12.32
2023-04-15T01:28:46.214Z,12.35
2023-04-15T01:31:14.394Z,12.32
2023-04-15T01:33:43.455Z,12.28
2023-04-15T01:36:10.885Z,12.34
2023-04-15T01:38:38.874Z,12.30
2023-04-15T01:41:07.655Z,12.33
2023-04-15T01:43:38.016Z,12.25
2023-04-15T01:46:05.313Z,12.32
2023-04-15T01:48:32.730Z,12.25
2023-04-15T01:50:59.814Z,12.24
2023-04-15T01:53:26.724Z,12.23
2023-04-15T01:55:53.657Z,12.17
2023-04-15T01:58:20.777Z,12.25
2023-04-15T02:00:48.133Z,12.26
2023-04-15T02:03:15.325Z,12.18
2023-04-15T02:05:42.826Z,12.13
2023-04-15T02:08:11.447Z,12.13
2023-04-15T02:10:38.922Z,12.07
2023-04-15T02:13:05.888Z,12.08
2023-04-15T02:15:33.490Z,12.08
2023-04-15T02:18:01.977Z,12.09
2023-04-15T02:20:30.607Z,12.09
2023-04-15T02:22:58.337Z,12.14
2023-04-15T02:25:25.458Z,12.06
2023-04-15T02:27:52.481Z,11.94
2023-04-15T02:30:19.765Z,11.95
2023-04-15T02:32:47.127Z,12.06
2023-04-15T02:35:14.302Z,12.13
2023-04-15T02:37:43.876Z,12.00
2023-04-15T02:40:12.412Z,11.95
2023-04-15T02:42:40.439Z,11.98
2023-04-15T02:45:12.166Z,11.83
2023-04-15T02:47:43.424Z,11.81
2023-04-15T02:50:13.118Z,11.88
2023-04-15T02:52:42.673Z,11.88
2023-04-15T02:55:10.621Z,11.93
2023-04-15T02:57:39.103Z,11.90
2023-04-15T03:00:10.054Z,11.83
2023-04-15T03:02:39.949Z,11.81
2023-04-15T03:05:07.454Z,11.87
2023-04-15T03:07:34.346Z,11.89
2023-04-15T03:10:02.702Z,11.84
2023-04-15T03:12:30.418Z,11.83
2023-04-15T03:14:58.635Z,11.79
2023-04-15T03:17:33.275Z,11.75
2023-04-15T03:20:03.003Z,11.69
2023-04-15T03:22:30.062Z,11.69
2023-04-15T03:24:57.406Z,11.72
2023-04-15T03:27:24.628Z,11.73
2023-04-15T03:29:52.794Z,11.71
2023-04-15T03:32:21.780Z,11.68
2023-04-15T03:34:48.869Z,11.73
2023-04-15T03:37:15.923Z,11.77
2023-04-15T03:39:42.963Z,11.81
2023-04-15T03:42:09.845Z,11.78
2023-04-15T03:44:37.226Z,11.86
2023-04-15T03:47:04.195Z,11.87
2023-04-15T03:49:31.186Z,11.82
2023-04-15T03:51:58.056Z,11.75
2023-04-15T03:54:25.000Z,11.76
2023-04-15T03:56:52.128Z,11.76
2023-04-15T03:59:18.999Z,11.67
2023-04-15T04:01:46.197Z,11.68
2023-04-15T04:04:13.236Z,11.63
2023-04-15T04:06:40.365Z,11.70
2023-04-15T04:09:07.353Z,11.68
2023-04-15T04:11:34.645Z,11.81
2023-04-15T04:14:01.479Z,11.77
2023-04-15T04:16:28.563Z,11.74
2023-04-15T04:18:55.604Z,11.79
2023-04-15T04:21:22.704Z,11.80
2023-04-15T04:23:49.770Z,11.75
2023-04-15T04:26:16.825Z,11.78
2023-04-15T04:28:44.039Z,11.79
2023-04-15T04:31:11.106Z,11.80
2023-04-15T04:33:37.926Z,11.79
2023-04-15T04:36:05.708Z,11.85
2023-04-15T04:38:32.738Z,11.98
2023-04-15T04:40:59.892Z,11.95
2023-04-15T04:43:29.036Z,12.06
2023-04-15T04:45:55.991Z,12.19
2023-04-15T04:48:23.132Z,12.25
2023-04-15T04:50:50.390Z,12.24
2023-04-15T04:53:18.114Z,12.17
2023-04-15T04:55:45.249Z,12.16
2023-04-15T04:58:12.716Z,12.20
2023-04-15T05:00:41.021Z,12.17
2023-04-15T05:03:08.468Z,12.24
2023-04-15T05:05:37.235Z,12.32
2023-04-15T05:08:04.839Z,12.41
2023-04-15T05:10:32.053Z,12.47
2023-04-15T05:12:59.034Z,12.52
2023-04-15T05:15:25.862Z,12.52
2023-04-15T05:17:53.436Z,12.61
2023-04-15T05:20:20.399Z,12.66
2023-04-15T05:22:47.601Z,12.74
2023-04-15T05:25:14.821Z,12.69
2023-04-15T05:27:42.195Z,12.80
2023-04-15T05:30:10.268Z,12.84
2023-04-15T05:32:38.602Z,12.93
2023-04-15T05:35:06.620Z,13.01
2023-04-15T05:37:33.560Z,13.08
2023-04-15T05:40:01.164Z,13.21
2023-04-15T05:42:28.373Z,13.11
2023-04-15T05:44:55.527Z,13.20
2023-04-15T05:47:22.710Z,13.08
2023-04-15T05:49:49.815Z,13.19
2023-04-15T05:52:17.637Z,13.28
2023-04-15T05:54:44.425Z,13.49
2023-04-15T05:57:11.834Z,13.79
2023-04-15T05:59:38.946Z,13.93
2023-04-15T06:02:06.506Z,14.10
2023-04-15T06:04:33.570Z,14.17
2023-04-15T06:07:00.872Z,14.20
2023-04-15T06:09:28.963Z,14.18
2023-04-15T06:11:57.084Z,14.26
2023-04-15T06:14:24.196Z,14.39
2023-04-15T06:16:51.545Z,14.37
2023-04-15T06:19:19.470Z,14.42
2023-04-15T06:21:46.801Z,14.36
2023-04-15T06:24:13.813Z,14.55
2023-04-15T06:26:40.843Z,14.59
2023-04-15T06:29:07.775Z,14.65
2023-04-15T06:31:34.926Z,14.64
2023-04-15T06:34:01.999Z,14.85
2023-04-15T06:36:28.838Z,15.07
2023-04-15T06:38:57.048Z,15.11
2023-04-15T06:41:24.377Z,15.28
2023-04-15T06:43:51.632Z,15.42
2023-04-15T06:46:19.017Z,15.55
2023-04-15T06:48:46.152Z,15.51
2023-04-15T06:51:13.280Z,15.70
2023-04-15T06:53:42.112Z,15.72
2023-04-15T06:56:09.790Z,15.64
2023-04-15T06:58:37.316Z,15.48
2023-04-15T07:01:04.635Z,15.53
2023-04-15T07:03:32.926Z,15.49
2023-04-15T07:06:01.481Z,15.63
2023-04-15T07:08:28.544Z,15.85
2023-04-15T07:10:55.578Z,15.88
2023-04-15T07:13:22.693Z,15.99
2023-04-15T07:15:49.464Z,16.12
2023-04-15T07:18:16.643Z,16.21
2023-04-15T07:20:43.900Z,16.28
2023-04-15T07:23:10.803Z,16.31
2023-04-15T07:25:37.866Z,16.51
2023-04-15T07:28:05.122Z,16.64
2023-04-15T07:30:31.987Z,16.90
2023-04-15T07:32:59.423Z,16.99
2023-04-15T07:35:26.684Z,17.12
2023-04-15T07:37:53.838Z,17.30
2023-04-15T07:40:20.898Z,17.39
2023-04-15T07:42:49.648Z,17.38
2023-04-15T07:45:17.022Z,17.46
2023-04-15T07:47:44.133Z,17.48
2023-04-15T07:50:13.745Z,17.63
2023-04-15T07:52:40.886Z,17.68
2023-04-15T07:55:09.502Z,17.81
2023-04-15T07:57:37.178Z,17.85
2023-04-15T08:00:06.149Z,17.85
2023-04-15T08:02:40.645Z,17.87
2023-04-15T08:05:08.381Z,17.90
2023-04-15T08:07:36.599Z,17.96
2023-04-15T08:10:04.220Z,18.00
2023-04-15T08:12:31.663Z,18.18
2023-04-15T08:14:58.663Z,18.29
2023-04-15T08:17:25.822Z,18.27
2023-04-15T08:19:54.148Z,18.41
2023-04-15T08:22:21.990Z,18.30
2023-04-15T08:24:49.383Z,18.23
2023-04-15T08:27:16.446Z,18.27
2023-04-15T08:29:43.718Z,18.44
2023-04-15T08:32:11.200Z,18.53
2023-04-15T08:34:38.568Z,18.58
2023-04-15T08:37:05.620Z,18.52
2023-04-15T08:39:33.106Z,18.48
2023-04-15T08:42:07.226Z,18.44
2023-04-15T08:44:37.045Z,18.65
2023-04-15T08:47:07.794Z,18.81
2023-04-15T08:49:39.222Z,18.88
2023-04-15T08:52:06.652Z,18.96
2023-04-15T08:54:34.748Z,18.90
2023-04-15T08:57:02.720Z,18.92
2023-04-15T08:59:32.855Z,18.92
2023-04-15T09:01:59.921Z,19.06
2023-04-15T09:04:28.781Z,19.07
2023-04-15T09:06:55.852Z,19.18
2023-04-15T09:09:22.959Z,19.10
2023-04-15T09:11:51.510Z,19.12
2023-04-15T09:14:18.516Z,19.10
2023-04-15T09:17:02.343Z,18.98
2023-04-15T09:19:30.132Z,19.07
2023-04-15T09:21:59.103Z,19.03
2023-04-15T09:24:37.611Z,19.02
2023-04-15T09:27:04.724Z,19.06
2023-04-15T09:29:31.764Z,19.11
2023-04-15T09:32:10.882Z,19.19
2023-04-15T09:34:41.274Z,19.31
2023-04-15T09:37:10.917Z,19.36
2023-04-15T09:39:48.690Z,19.41
2023-04-15T09:42:17.717Z,19.52
2023-04-15T09:44:44.734Z,19.51
2023-04-15T09:47:27.958Z,19.37
2023-04-15T09:49:59.778Z,19.44
2023-04-15T09:52:27.452Z,19.57
2023-04-15T09:54:58.875Z,19.52
2023-04-15T09:57:33.624Z,19.75
2023-04-15T10:00:01.047Z,19.80
2023-04-15T10:02:30.228Z,19.91
2023-04-15T10:04:58.157Z,20.08
2023-04-15T10:07:26.154Z,20.06
2023-04-15T10:09:53.563Z,20.12
2023-04-15T10:12:22.169Z,20.23
2023-04-15T10:14:55.552Z,20.23
2023-04-15T10:17:23.859Z,20.42
2023-04-15T10:19:54.183Z,20.34
2023-04-15T10:22:23.559Z,20.54
2023-04-15T10:24:51.507Z,20.42
2023-04-15T10:27:18.987Z,20.06
2023-04-15T10:29:46.940Z,20.31
2023-04-15T10:32:14.797Z,20.28
2023-04-15T10:34:42.531Z,20.33
2023-04-15T10:37:11.558Z,20.24
2023-04-15T10:39:43.267Z,20.19
2023-04-15T10:42:10.467Z,20.25
2023-04-15T10:44:58.395Z,20.34
2023-04-15T10:47:25.600Z,20.40
2023-04-15T10:49:58.333Z,20.60
2023-04-15T10:52:27.827Z,20.23
2023-04-15T10:55:19.191Z,19.90
2023-04-15T10:57:46.117Z,19.81
2023-04-15T11:00:14.530Z,19.64
2023-04-15T11:02:47.690Z,19.90
2023-04-15T11:05:16.925Z,19.86
2023-04-15T11:07:49.863Z,19.87
2023-04-15T11:10:26.365Z,19.92
2023-04-15T11:12:58.474Z,20.00
2023-04-15T11:15:45.051Z,20.05
2023-04-15T11:18:13.943Z,20.06
2023-04-15T11:20:43.209Z,20.19
2023-04-15T11:23:15.382Z,20.32
2023-04-15T11:25:44.142Z,20.21
2023-04-15T11:28:12.455Z,20.27
2023-04-15T11:30:40.750Z,20.45
2023-04-15T11:33:09.634Z,20.66
2023-04-15T11:35:36.970Z,20.76
2023-04-15T11:38:05.385Z,21.12
2023-04-15T11:40:35.543Z,21.28
2023-04-15T11:43:05.564Z,21.43
2023-04-15T11:45:32.655Z,21.54
2023-04-15T11:48:09.572Z,21.64
2023-04-15T11:50:37.532Z,21.59
2023-04-15T11:53:08.561Z,21.53
2023-04-15T11:55:47.099Z,21.28
2023-04-15T11:58:20.582Z,21.14
2023-04-15T12:00:56.281Z,21.28
2023-04-15T12:03:27.480Z,21.39
2023-04-15T12:06:07.237Z,21.17
2023-04-15T12:08:53.330Z,21.39
2023-04-15T12:11:27.374Z,21.61
2023-04-15T12:14:03.197Z,21.27
2023-04-15T12:16:30.841Z,21.50
2023-04-15T12:18:59.658Z,21.63
2023-04-15T12:21:29.300Z,21.64
2023-04-15T12:23:58.229Z,21.63
2023-04-15T12:26:36.948Z,21.44
2023-04-15T12:29:08.481Z,21.38
2023-04-15T12:31:39.338Z,21.47
2023-04-15T12:34:08.710Z,21.17
2023-04-15T12:36:38.479Z,21.33
2023-04-15T12:39:06.343Z,21.44
2023-04-15T12:41:33.784Z,21.40
2023-04-15T12:44:01.479Z,21.41
2023-04-15T12:46:28.669Z,21.24
2023-04-15T12:48:55.919Z,21.07
2023-04-15T12:51:23.023Z,20.91
2023-04-15T12:53:51.545Z,21.02
2023-04-15T12:56:18.728Z,20.95
2023-04-15T12:58:46.357Z,21.06
2023-04-15T13:01:13.402Z,21.20
2023-04-15T13:03:40.621Z,21.47
2023-04-15T13:06:08.313Z,21.72
2023-04-15T13:08:38.406Z,21.83
2023-04-15T13:11:07.470Z,21.81
2023-04-15T13:13:34.532Z,21.98
2023-04-15T13:16:01.638Z,22.03
2023-04-15T13:18:31.567Z,22.03
2023-04-15T13:20:58.731Z,22.22
2023-04-15T13:23:25.513Z,22.34
2023-04-15T13:25:52.816Z,22.32
2023-04-15T13:28:19.660Z,22.40
2023-04-15T13:30:47.351Z,22.36
2023-04-15T13:33:14.199Z,22.43
2023-04-15T13:35:41.568Z,22.43
2023-04-15T13:38:08.573Z,22.35
2023-04-15T13:40:35.552Z,22.25
2023-04-15T13:43:03.484Z,22.29
2023-04-15T13:45:30.862Z,22.26
2023-04-15T13:47:57.921Z,22.14
2023-04-15T13:50:25.177Z,22.05
2023-04-15T13:52:52.269Z,21.89
2023-04-15T13:55:21.254Z,21.78
2023-04-15T13:57:50.702Z,21.69
2023-04-15T14:00:18.223Z,21.59
2023-04-15T14:02:46.280Z,21.46
2023-04-15T14:05:13.418Z,21.50
2023-04-15T14:07:40.986Z,21.63
2023-04-15T14:10:08.835Z,21.64
2023-04-15T14:12:36.129Z,21.69
2023-04-15T14:15:03.471Z,21.69
2023-04-15T14:17:30.828Z,21.74
2023-04-15T14:19:57.973Z,21.72
2023-04-15T14:22:25.160Z,21.68
2023-04-15T14:24:53.739Z,21.59
2023-04-15T14:27:21.011Z,21.48
2023-04-15T14:29:48.009Z,21.45
2023-04-15T14:32:16.156Z,21.31
2023-04-15T14:34:44.345Z,21.30
2023-04-15T14:37:13.161Z,21.33
2023-04-15T14:39:40.030Z,21.19
2023-04-15T14:42:07.048Z,21.10
2023-04-15T14:44:33.945Z,20.92
2023-04-15T14:47:01.261Z,20.89
2023-04-15T14:49:28.750Z,20.95
2023-04-15T14:51:55.820Z,20.91
2023-04-15T14:54:22.776Z,20.91
2023-04-15T14:56:49.932Z,20.86
2023-04-15T14:59:16.846Z,20.70
2023-04-15T15:01:43.951Z,20.58
2023-04-15T15:04:11.548Z,20.65
2023-04-15T15:06:39.126Z,20.65
2023-04-15T15:09:06.429Z,20.55
2023-04-15T15:11:33.711Z,20.42
2023-04-15T15:14:00.910Z,20.45
2023-04-15T15:16:29.401Z,20.30
2023-04-15T15:18:56.625Z,20.37
2023-04-15T15:21:23.874Z,20.29
2023-04-15T15:23:51.197Z,20.17
2023-04-15T15:26:19.462Z,20.08
2023-04-15T15:28:46.970Z,20.07
2023-04-15T15:31:14.813Z,20.11
2023-04-15T15:33:41.896Z,20.01
2023-04-15T15:36:10.966Z,19.96
2023-04-15T15:38:38.029Z,19.90
2023-04-15T15:41:05.499Z,19.98
2023-04-15T15:43:32.565Z,19.82
2023-04-15T15:46:01.060Z,19.78
2023-04-15T15:48:28.295Z,19.72
2023-04-15T15:50:55.401Z,19.55
2023-04-15T15:53:24.494Z,19.57
2023-04-15T15:55:53.641Z,19.46
2023-04-15T15:58:21.309Z,19.41
2023-04-15T16:00:48.455Z,19.33
2023-04-15T16:03:16.314Z,19.36
2023-04-15T16:05:43.570Z,19.33
2023-04-15T16:08:10.716Z,19.30
2023-04-15T16:10:38.256Z,19.33
2023-04-15T16:13:05.642Z,19.23
2023-04-15T16:15:32.485Z,19.23
2023-04-15T16:17:59.759Z,19.18
2023-04-15T16:20:28.547Z,19.06
2023-04-15T16:22:58.849Z,19.06
2023-04-15T16:25:25.934Z,19.04
2023-04-15T16:28:03.083Z,18.95
2023-04-15T16:30:40.373Z,18.78
2023-04-15T16:33:08.666Z,18.68
2023-04-15T16:35:35.846Z,18.66
2023-04-15T16:38:03.448Z,18.62
2023-04-15T16:40:30.736Z,18.55
2023-04-15T16:42:57.679Z,18.43
2023-04-15T16:45:25.061Z,18.36
2023-04-15T16:47:51.966Z,18.30
2023-04-15T16:50:19.247Z,18.17
2023-04-15T16:52:46.398Z,18.11
2023-04-15T16:55:13.248Z,17.86
2023-04-15T16:58:03.040Z,17.85
2023-04-15T17:00:27.362Z,17.73
2023-04-15T17:02:55.769Z,17.65
2023-04-15T17:05:22.831Z,17.55
2023-04-15T17:07:49.891Z,17.50
2023-04-15T17:10:17.186Z,17.41
2023-04-15T17:12:44.077Z,17.18
2023-04-15T17:15:11.354Z,17.26
2023-04-15T17:17:38.401Z,17.21
2023-04-15T17:20:06.227Z,17.18
2023-04-15T17:22:33.658Z,17.04
2023-04-15T17:25:00.639Z,17.04
2023-04-15T17:27:28.963Z,17.00
2023-04-15T17:29:56.454Z,16.90
2023-04-15T17:32:24.240Z,16.84
2023-04-15T17:34:51.586Z,16.76
2023-04-15T17:37:18.871Z,16.71
2023-04-15T17:39:46.117Z,16.57
2023-04-15T17:42:13.926Z,16.61
2023-04-15T17:44:40.850Z,16.52
2023-04-15T17:47:07.860Z,16.39
2023-04-15T17:49:37.830Z,16.34
2023-04-15T17:52:04.959Z,16.19
2023-04-15T17:54:31.813Z,16.03
2023-04-15T17:56:59.473Z,16.23
2023-04-15T17:59:26.555Z,16.15
2023-04-15T18:01:53.510Z,16.19
2023-04-15T18:04:20.601Z,16.28
2023-04-15T18:06:47.953Z,16.31
2023-04-15T18:09:15.194Z,16.25
2023-04-15T18:11:44.021Z,16.20
2023-04-15T18:14:11.331Z,16.14
2023-04-15T18:16:40.315Z,16.03
2023-04-15T18:19:07.414Z,16.00
2023-04-15T18:21:34.347Z,15.76
2023-04-15T18:24:01.727Z,15.86
2023-04-15T18:26:29.028Z,15.81
2023-04-15T18:28:55.943Z,15.81
2023-04-15T18:31:23.181Z,15.76
2023-04-15T18:33:50.212Z,15.75
2023-04-15T18:36:17.156Z,15.74
2023-04-15T18:38:46.132Z,15.69
2023-04-15T18:41:13.821Z,15.58
2023-04-15T18:43:41.479Z,15.42
2023-04-15T18:46:12.653Z,15.41
2023-04-15T18:48:39.544Z,15.38
2023-04-15T18:51:06.616Z,15.34
2023-04-15T18:53:33.561Z,15.39
2023-04-15T18:56:03.235Z,15.37
2023-04-15T18:59:08.620Z,15.39
2023-04-15T19:01:17.786Z,15.26
2023-04-15T19:03:44.723Z,15.15
2023-04-15T19:06:11.720Z,14.99
2023-04-15T19:08:38.753Z,14.99
2023-04-15T19:11:05.725Z,15.12
2023-04-15T19:13:32.695Z,15.11
2023-04-15T19:15:59.878Z,15.11
2023-04-15T19:18:27.145Z,15.02
2023-04-15T19:20:56.006Z,14.92
2023-04-15T19:23:23.661Z,14.99
2023-04-15T19:25:50.611Z,14.92
2023-04-15T19:28:17.692Z,14.89
2023-04-15T19:30:44.543Z,14.79
2023-04-15T19:33:11.554Z,14.98
2023-04-15T19:35:40.653Z,14.93
2023-04-15T19:38:07.709Z,14.99
2023-04-15T19:40:34.804Z,15.07
2023-04-15T19:43:01.974Z,14.95
2023-04-15T19:45:28.907Z,14.96
2023-04-15T19:47:55.918Z,14.93
2023-04-15T19:50:26.305Z,14.94
2023-04-15T19:52:53.890Z,14.87
2023-04-15T19:55:21.022Z,14.78
2023-04-15T19:57:48.162Z,14.78
2023-04-15T20:00:15.160Z,14.73
2023-04-15T20:02:42.276Z,14.74
2023-04-15T20:05:12.060Z,14.65
2023-04-15T20:07:42.499Z,14.74
2023-04-15T20:10:13.241Z,14.61
2023-04-15T20:12:50.925Z,14.56
2023-04-15T20:15:20.754Z,14.50
2023-04-15T20:17:47.991Z,14.43
2023-04-15T20:20:14.780Z,14.33
2023-04-15T20:22:41.732Z,14.40
2023-04-15T20:25:08.980Z,14.37
2023-04-15T20:27:35.933Z,14.31
2023-04-15T20:30:04.995Z,14.26
2023-04-15T20:32:36.073Z,14.16
2023-04-15T20:35:05.605Z,14.12
2023-04-15T20:37:33.844Z,14.07
2023-04-15T20:40:01.563Z,14.04
2023-04-15T20:42:32.263Z,14.05
2023-04-15T20:44:59.131Z,13.97
2023-04-15T20:47:26.459Z,13.97
2023-04-15T20:49:54.167Z,13.85
2023-04-15T20:52:21.250Z,13.91
2023-04-15T20:54:48.084Z,13.91
2023-04-15T20:57:14.936Z,13.84
2023-04-15T20:59:41.935Z,13.75
2023-04-15T21:02:09.094Z,13.69
2023-04-15T21:04:38.027Z,13.49
2023-04-15T21:07:05.109Z,13.49
2023-04-15T21:09:32.055Z,13.47
2023-04-15T21:12:01.487Z,13.37
2023-04-15T21:14:30.036Z,13.26
2023-04-15T21:16:58.288Z,13.18
2023-04-15T21:19:25.550Z,13.07
2023-04-15T21:21:52.373Z,13.06
2023-04-15T21:24:19.622Z,12.94
2023-04-15T21:26:46.494Z,12.90
2023-04-15T21:29:14.002Z,12.88
2023-04-15T21:31:41.108Z,12.83
2023-04-15T21:34:08.508Z,12.83
2023-04-15T21:36:35.890Z,12.83
2023-04-15T21:39:03.128Z,12.81
2023-04-15T21:41:30.205Z,12.76
2023-04-15T21:43:57.349Z,12.77
2023-04-15T21:46:25.647Z,12.67
2023-04-15T21:49:00.114Z,12.65
2023-04-15T21:51:27.815Z,12.63
2023-04-15T21:53:54.934Z,12.52
2023-04-15T21:56:24.416Z,12.60
2023-04-15T21:58:59.672Z,12.56
2023-04-15T22:01:27.019Z,12.39
2023-04-15T22:03:54.269Z,12.29
2023-04-15T22:06:21.630Z,12.27
2023-04-15T22:08:56.820Z,12.13
2023-04-15T22:11:28.478Z,12.21
2023-04-15T22:13:57.543Z,12.14
2023-04-15T22:16:27.881Z,12.11
2023-04-15T22:18:56.099Z,12.12
2023-04-15T22:21:23.304Z,12.06
2023-04-15T22:23:52.606Z,12.05
2023-04-15T22:26:19.548Z,11.97
2023-04-15T22:28:46.599Z,11.88
2023-04-15T22:31:14.941Z,11.80
2023-04-15T22:33:42.321Z,11.73
2023-04-15T22:36:09.255Z,11.73
2023-04-15T22:38:36.276Z,11.77
2023-04-15T22:41:03.390Z,11.82
2023-04-15T22:43:30.540Z,11.77
2023-04-15T22:45:57.679Z,11.70
2023-04-15T22:48:24.629Z,11.72
2023-04-15T22:50:51.468Z,11.68
2023-04-15T22:53:18.645Z,11.70
2023-04-15T22:55:47.327Z,11.66
2023-04-15T22:58:15.350Z,11.63
2023-04-15T23:00:42.647Z,11.69
2023-04-15T23:03:09.620Z,11.63
2023-04-15T23:05:37.356Z,11.73
2023-04-15T23:08:04.199Z,11.86
2023-04-15T23:10:31.072Z,11.78
2023-04-15T23:12:57.885Z,11.74
2023-04-15T23:15:25.987Z,11.77
2023-04-15T23:17:52.924Z,11.73
2023-04-15T23:20:19.890Z,11.60
2023-04-15T23:22:46.925Z,11.44
2023-04-15T23:25:14.056Z,11.27
2023-04-15T23:27:40.888Z,11.23
2023-04-15T23:30:08.354Z,11.21
2023-04-15T23:32:35.533Z,11.19
2023-04-15T23:35:02.653Z,11.19
2023-04-15T23:37:31.350Z,11.04
2023-04-15T23:39:58.558Z,11.19
2023-04-15T23:42:26.074Z,11.17
2023-04-15T23:44:53.133Z,11.23
2023-04-15T23:47:20.213Z,11.27
2023-04-15T23:49:47.138Z,11.29
2023-04-15T23:52:14.360Z,11.42
2023-04-15T23:54:41.358Z,11.52
2023-04-15T23:57:08.143Z,11.64
2023-04-15T23:59:34.897Z,11.90
